EW3027 Weather Reports


Display with metric or nautical units.
time (UTC)temp
F
wind
direction
speed
MPH
gust
MPH
rain 1hr
in
rain 24hr
in
rain mn
in
humidity
%
barometer
mb
20200402061721 40 0.0 0.0 0.02 0.23 0.23 95 1020.7
20200402060720 40 0.0 0.0 0.02 0.23 0.23 95 1020.7
20200402055722 41 0.0 0.0 0.02 0.23 0.23 95 1020.6
20200402054721 41 0.0 0.0 0.02 0.23 0.23 95 1020.5
20200402053723 41 0.0 0.0 0.01 0.22 0.22 94 1020.5
20200402052722 41 0.0 0.0 0.00 0.21 0.21 94 1020.4
20200402051721 41 0.0 0.0 0.00 0.21 0.21 94 1020.4
20200402050720 41 0.0 0.0 0.00 0.21 0.21 94 1020.2
20200402045723 41 0.0 0.0 0.00 0.21 0.21 94 1020.1
20200402044722 41 0.0 0.0 0.00 0.21 0.21 94 1020.0
20200402043721 41 0.0 0.0 0.00 0.21 0.21 94 1019.9
20200402042721 41 0.0 0.0 0.00 0.21 0.21 93 1019.9
20200402041723 41 0.0 0.0 0.00 0.21 0.21 93 1019.8
20200402040722 41 0.0 0.0 0.00 0.21 0.21 93 1019.7
20200402035721 41 0.0 0.0 0.00 0.21 0.21 93 1019.7
20200402034719 41 0.0 0.0 0.00 0.21 0.21 93 1019.5
20200402033722 41 0.0 0.0 0.00 0.21 0.21 93 1019.4
20200402032722 41 0.0 0.0 0.00 0.21 0.21 93 1019.2
20200402031722 41 0.0 0.0 0.00 0.21 0.21 92 1018.9
20200402030722 41 112 1.0 1.0 0.00 0.21 0.21 92 1018.8
20200402025721 41 0.0 0.0 0.00 0.21 0.21 92 1018.6
20200402024722 42 0.0 0.0 0.00 0.21 0.21 91 1018.6
20200402023722 42 0.0 0.0 0.00 0.21 0.21 90 1018.5
20200402022721 43 0.0 0.0 0.00 0.21 0.21 88 1018.4
20200402021722 43 0.0 0.0 0.00 0.21 0.21 89 1018.3
20200402020721 43 0.0 1.0 0.00 0.21 0.21 90 1018.2
20200402015722 43 0.0 0.0 0.00 0.21 0.21 91 1018.2
20200402014722 43 0.0 0.0 0.00 0.21 0.21 89 1018.1
20200402013720 44 0.0 0.0 0.00 0.21 0.21 87 1018.0
20200402012722 44 0.0 0.0 0.00 0.21 0.21 86 1018.0
20200402011721 44 0.0 0.0 0.00 0.21 0.21 86 1018.0
20200402010721 45 0.0 0.0 0.00 0.21 0.21 84 1018.0
20200402005722 46 0.0 0.0 0.00 0.21 0.21 84 1018.0
20200402004722 45 0.0 0.0 0.00 0.21 0.21 86 1018.0
20200402003721 44 0.0 0.0 0.00 0.21 0.21 87 1018.1
20200402002721 45 0.0 0.0 0.00 0.21 0.21 85 1017.8
20200402001722 45 0.0 0.0 0.00 0.21 0.21 83 1017.8
20200402000722 46 0.0 0.0 0.00 0.21 0.21 83 1017.8
20200401235722 46 0.0 0.0 0.00 0.21 0.21 86 1017.8
20200401234721 45 0.0 0.0 0.02 0.21 0.21 89 1017.8
20200401233720 44 0.0 0.0 0.03 0.21 0.21 87 1017.7
20200401232722 45 0.0 0.0 0.03 0.21 0.21 86 1017.7
20200401231722 45 0.0 0.0 0.03 0.21 0.21 87 1017.7
20200401230722 45 0.0 0.0 0.03 0.21 0.21 89 1017.8
20200401225721 43 0.0 0.0 0.03 0.21 0.21 89 1017.6
20200401224720 43 0.0 0.0 0.02 0.19 0.19 86 1017.7
20200401223720 44 0.0 0.0 0.01 0.18 0.18 86 1017.6
20200401222722 45 0.0 0.0 0.01 0.18 0.18 83 1017.6
20200401221721 45 0.0 0.0 0.02 0.18 0.18 87 1017.6
20200401220721 45 0.0 0.0 0.03 0.18 0.18 90 1017.6
20200401215721 44 90 1.0 1.0 0.05 0.18 0.18 89 1017.6
20200401214720 43 0.0 0.0 0.05 0.17 0.17 88 1017.7
20200401213722 43 0.0 0.0 0.07 0.17 0.17 93 1017.6
20200401212721 42 0.0 0.0 0.10 0.17 0.17 92 1017.7
20200401211721 42 0.0 0.0 0.10 0.16 0.16 91 1017.7
20200401210720 42 0.0 0.0 0.10 0.15 0.15 93 1017.7
20200401205722 41 0.0 0.0 0.08 0.12 0.13 92 1017.8
20200401204721 41 0.0 0.0 0.08 0.11 0.12 91 1017.8
20200401203720 41 0.0 0.0 0.06 0.10 0.10 89 1017.9
20200401202721 42 0.0 0.0 0.03 0.07 0.07 87 1017.9
20200401201720 42 0.0 0.0 0.01 0.05 0.05 85 1017.8
20200401200721 42 0.0 0.0 0.01 0.05 0.05 88 1017.8
20200401195722 42 0.0 0.0 0.02 0.05 0.05 87 1017.8
20200401194721 42 0.0 0.0 0.01 0.04 0.04 86 1018.0
20200401193720 43 0.0 0.0 0.01 0.04 0.04 86 1017.9
20200401192719 42 0.0 0.0 0.02 0.04 0.04 86 1018.0
20200401191722 42 0.0 0.0 0.02 0.04 0.04 88 1018.0
20200401190721 42 0.0 0.0 0.02 0.04 0.04 89 1018.1
20200401185720 42 0.0 0.0 0.01 0.03 0.03 89 1018.2
20200401184720 42 0.0 0.0 0.01 0.03 0.03 88 1018.2
20200401183719 42 0.0 0.0 0.01 0.03 0.03 85 1018.4
20200401182722 42 0.0 0.0 0.00 0.02 0.02 83 1018.5
20200401181721 43 0.0 0.0 0.00 0.02 0.02 83 1018.4
20200401180720 42 0.0 0.0 0.00 0.02 0.02 87 1018.5
20200401175722 42 0.0 0.0 0.01 0.02 0.02 87 1018.4
20200401174721 42 0.0 0.0 0.01 0.02 0.02 89 1018.5
20200401173721 41 0.0 0.0 0.02 0.02 0.02 87 1018.5
20200401172720 41 0.0 0.0 0.02 0.02 0.02 91 1018.5
20200401171722 40 0.0 0.0 0.02 0.02 0.02 91 1018.6
20200401170721 40 0.0 0.0 0.02 0.02 0.02 91 1018.7
20200401165721 40 67 1.0 4.0 0.01 0.01 0.01 90 1018.7
20200401164721 40 0.0 0.0 0.01 0.01 0.01 91 1018.8
20200401163720 39 0.0 0.0 0.00 0.00 0.00 90 1018.8
20200401162722 39 0.0 1.0 0.00 0.00 0.00 90 1018.8
20200401161722 39 0.0 0.0 0.00 0.00 0.00 90 1018.7
20200401160721 39 0.0 0.0 0.00 0.00 0.00 90 1018.7
20200401155720 38 0.0 0.0 0.00 0.00 0.00 91 1018.8
20200401154720 38 0.0 0.0 0.00 0.00 0.00 91 1018.8
20200401153720 38 0.0 0.0 0.00 0.00 0.00 92 1018.7
20200401152722 38 0.0 0.0 0.00 0.00 0.00 92 1018.8
20200401151721 38 0.0 0.0 0.00 0.00 0.00 92 1018.9
20200401150720 38 0.0 0.0 0.00 0.00 0.00 92 1018.9
20200401145719 37 0.0 0.0 0.00 0.00 0.00 93 1018.9
20200401144721 37 0.0 0.0 0.00 0.00 0.00 93 1019.0
20200401143721 36 0.0 0.0 0.00 0.00 0.00 92 1018.8
20200401142720 36 0.0 0.0 0.00 0.00 0.00 92 1018.8
20200401141719 37 0.0 0.0 0.00 0.01 0.00 92 1018.8
20200401140720 37 0.0 0.0 0.00 0.01 0.00 93 1018.8
20200401135721 37 0.0 0.0 0.00 0.01 0.00 93 1018.8
20200401134721 37 0.0 0.0 0.00 0.01 0.00 92 1018.7
20200401133720 37 0.0 0.0 0.00 0.02 0.00 92 1018.8
20200401132720 37 0.0 0.0 0.00 0.02 0.00 92 1018.8
20200401131721 37 0.0 0.0 0.00 0.02 0.00 92 1018.7
20200401130721 37 0.0 0.0 0.00 0.02 0.00 91 1018.7
20200401125721 37 0.0 0.0 0.00 0.03 0.00 92 1018.7
20200401124720 37 0.0 0.0 0.00 0.03 0.00 92 1018.8
20200401123720 37 0.0 0.0 0.00 0.05 0.00 92 1018.8
20200401122721 37 0.0 0.0 0.00 0.06 0.00 92 1018.9
20200401121721 37 0.0 0.0 0.00 0.06 0.00 92 1018.9
20200401120721 37 0.0 0.0 0.00 0.06 0.00 92 1018.9
20200401115719 37 0.0 0.0 0.00 0.06 0.00 92 1018.9
20200401114720 37 0.0 0.0 0.00 0.06 0.00 92 1019.0
20200401113720 37 0.0 0.0 0.00 0.06 0.00 92 1019.1
20200401112722 37 0.0 0.0 0.00 0.07 0.00 92 1019.1
20200401111721 37 0.0 0.0 0.00 0.08 0.00 93 1019.0
20200401110721 36 0.0 0.0 0.00 0.09 0.00 93 1019.1
20200401105723 36 0.0 0.0 0.00 0.09 0.00 92 1019.1
20200401104722 36 0.0 0.0 0.00 0.10 0.00 92 1019.1
20200401103721 37 0.0 0.0 0.00 0.11 0.00 92 1019.2
20200401102721 37 0.0 0.0 0.00 0.13 0.00 92 1019.3
20200401101721 37 0.0 0.0 0.00 0.16 0.00 92 1019.4
20200401100723 37 0.0 0.0 0.00 0.16 0.00 92 1019.4
20200401095721 37 0.0 0.0 0.00 0.17 0.00 93 1019.4
20200401094723 36 0.0 0.0 0.00 0.17 0.00 93 1019.5
20200401093722 36 0.0 0.0 0.00 0.18 0.00 93 1019.4
20200401092722 36 0.0 0.0 0.00 0.18 0.00 93 1019.5
20200401091721 36 0.0 0.0 0.00 0.19 0.00 93 1019.6
20200401090723 36 0.0 0.0 0.00 0.19 0.00 93 1019.6
20200401085722 36 0.0 0.0 0.00 0.19 0.00 92 1019.6
20200401084722 36 0.0 0.0 0.00 0.19 0.00 92 1019.6
20200401083721 36 0.0 0.0 0.00 0.20 0.00 92 1019.7
20200401082723 36 0.0 0.0 0.00 0.21 0.00 92 1019.7
20200401081723 36 0.0 0.0 0.00 0.22 0.00 91 1019.7
20200401080724 37 0.0 0.0 0.00 0.23 0.00 91 1019.8
20200401075721 37 0.0 0.0 0.00 0.23 0.00 91 1019.7
20200401074723 37 0.0 0.0 0.00 0.25 0.00 89 1019.7
20200401073722 37 0.0 0.0 0.00 0.26 0.00 89 1019.7
20200401072721 38 0.0 0.0 0.00 0.27 0.00 88 1019.7
20200401071722 38 0.0 0.0 0.00 0.28 0.00 88 1019.7
20200401070721 38 0.0 0.0 0.00 0.28 0.00 87 1019.7
20200401065723 39 0.0 0.0 0.00 0.30 0.28 87 1019.8
20200401064722 39 0.0 0.0 0.00 0.31 0.28 87 1019.8
20200401063721 39 0.0 0.0 0.00 0.32 0.28 88 1020.0
20200401062722 39 0.0 0.0 0.00 0.33 0.28 88 1019.9